Creek Data

    Home     View Charts     View Raw Data     Messages

ID Distance Battery Voltage Battery Current Internal Temp Internal Humidity External Temp Solar Input rssi snr Time Stamp Record
67960 14.3 3.84 5 65 58 62 4.5 -70 8 03/04/2026 05:45 PM 50817
67959 14.3 3.89 0 68 56 63 4.6 -69 8 03/04/2026 05:30 PM 50816
67958 14.4 3.78 0 71 54 66 5.1 -69 8 03/04/2026 05:15 PM 50815
67957 14.3 3.78 0 72 54 66 5.1 -69 8 03/04/2026 05:00 PM 50814
67956 14.4 3.78 0 72 55 67 5.1 -70 7 03/04/2026 04:45 PM 50813
67955 14.3 4.00 5 73 55 67 5.1 -71 7 03/04/2026 04:30 PM 50812
67954 14.3 3.77 0 71 58 65 5.1 -70 8 03/04/2026 04:15 PM 50811
67953 14.4 3.77 5 80 52 67 5.1 -69 8 03/04/2026 04:00 PM 50810
67952 14.3 3.77 0 82 51 71 5.1 -70 8 03/04/2026 03:45 PM 50809
67951 14.3 3.77 5 81 51 70 5.1 -69 8 03/04/2026 03:30 PM 50808
67950 14.4 3.81 5 82 50 69 5.1 -69 8 03/04/2026 03:15 PM 50807
67949 14.4 3.77 5 83 49 68 5.1 -69 8 03/04/2026 03:00 PM 50806
67948 14.5 3.77 5 85 47 70 5.1 -70 8 03/04/2026 02:45 PM 50805
67947 14.4 3.77 0 84 47 72 5.1 -70 8 03/04/2026 02:30 PM 50804
67946 14.4 3.77 0 81 48 71 5.1 -70 8 03/04/2026 02:15 PM 50803
67945 14.4 3.77 5 80 48 69 5.1 -70 7 03/04/2026 02:00 PM 50802
67944 14.4 3.77 0 79 48 69 5.1 -69 8 03/04/2026 01:45 PM 50801
67943 14.4 3.83 5 80 47 69 5.1 -70 8 03/04/2026 01:30 PM 50800
67942 14.4 4.07 0 79 47 68 5.1 -69 7 03/04/2026 01:15 PM 50799
67941 14.4 3.77 5 78 47 68 5.1 -69 8 03/04/2026 01:00 PM 50798
67940 14.4 3.98 0 78 47 70 5.1 -70 8 03/04/2026 12:45 PM 50797
67939 14.4 3.77 5 77 47 68 5.1 -69 8 03/04/2026 12:30 PM 50796
67938 14.4 3.77 0 76 47 69 5.1 -71 8 03/04/2026 12:15 PM 50795
67937 14.4 3.77 0 75 47 69 5.1 -70 8 03/04/2026 12:00 PM 50794
67936 14.4 3.77 5 73 47 67 5.1 -70 7 03/04/2026 11:45 AM 50793